createdAt,value
2022-10-12T00:01:08.286Z,22.10
2022-10-12T00:03:36.844Z,19.13
2022-10-12T00:06:08.754Z,14.23
2022-10-12T00:08:37.416Z,18.07
2022-10-12T00:11:06.143Z,15.20
2022-10-12T00:13:34.237Z,18.97
2022-10-12T00:16:07.187Z,18.20
2022-10-12T00:18:35.640Z,19.83
2022-10-12T00:21:09.570Z,18.87
2022-10-12T00:23:38.293Z,16.00
2022-10-12T00:26:09.354Z,22.67
2022-10-12T00:28:37.019Z,21.77
2022-10-12T00:31:13.094Z,23.90
2022-10-12T00:33:41.213Z,26.43
2022-10-12T00:36:30.159Z,25.43
2022-10-12T00:38:57.729Z,28.47
2022-10-12T00:41:29.429Z,24.63
2022-10-12T00:43:58.772Z,21.43
2022-10-12T00:46:33.333Z,27.63
2022-10-12T00:49:17.115Z,23.30
2022-10-12T00:51:50.618Z,23.60
2022-10-12T00:54:24.998Z,33.97
2022-10-12T00:56:54.810Z,27.07
2022-10-12T00:59:28.598Z,24.83
2022-10-12T01:01:56.417Z,20.93
2022-10-12T01:04:24.687Z,22.47
2022-10-12T01:06:53.011Z,22.50
2022-10-12T01:09:21.549Z,22.27
2022-10-12T01:11:49.514Z,17.20
2022-10-12T01:14:17.434Z,20.30
2022-10-12T01:16:54.531Z,24.07
2022-10-12T01:19:43.198Z,23.48
2022-10-12T01:22:18.263Z,24.00
2022-10-12T01:24:53.070Z,24.27
2022-10-12T01:27:26.281Z,23.73
2022-10-12T01:30:05.864Z,22.00
2022-10-12T01:32:45.099Z,22.47
2022-10-12T01:35:26.837Z,26.60
2022-10-12T01:38:42.766Z,19.63
2022-10-12T01:41:15.814Z,19.20
2022-10-12T01:43:45.172Z,18.53
2022-10-12T01:46:18.250Z,20.20
2022-10-12T01:48:49.174Z,22.37
2022-10-12T01:51:23.631Z,20.03
2022-10-12T01:54:14.204Z,24.33
2022-10-12T01:57:12.353Z,22.57
2022-10-12T02:00:02.814Z,18.88
2022-10-12T02:02:33.022Z,21.53
2022-10-12T02:05:44.698Z,22.77
2022-10-12T02:08:34.023Z,22.53
2022-10-12T02:11:16.661Z,20.00
2022-10-12T02:13:48.412Z,18.83
2022-10-12T02:16:20.032Z,17.27
2022-10-12T02:18:53.118Z,18.03
2022-10-12T02:21:29.440Z,17.67
2022-10-12T02:24:01.072Z,21.70
2022-10-12T02:26:32.180Z,20.33
2022-10-12T02:29:03.875Z,18.40
2022-10-12T02:31:47.768Z,16.20
2022-10-12T02:34:19.038Z,19.40
2022-10-12T02:37:15.336Z,14.77
2022-10-12T02:39:54.338Z,13.93
2022-10-12T02:42:46.505Z,15.40
2022-10-12T02:45:23.594Z,14.03
2022-10-12T02:47:54.415Z,13.13
2022-10-12T02:50:24.723Z,13.97
2022-10-12T02:52:53.338Z,12.37
2022-10-12T02:55:20.839Z,18.83
2022-10-12T02:57:48.348Z,19.10
2022-10-12T03:00:16.515Z,13.80
2022-10-12T03:02:44.036Z,14.87
2022-10-12T03:05:11.440Z,19.90
2022-10-12T03:07:39.198Z,16.03
2022-10-12T03:10:07.287Z,13.00
2022-10-12T03:12:34.742Z,12.63
2022-10-12T03:15:02.162Z,17.63
2022-10-12T03:17:31.048Z,16.33
2022-10-12T03:19:58.446Z,13.27
2022-10-12T03:22:25.934Z,13.00
2022-10-12T03:24:53.462Z,12.17
2022-10-12T03:27:20.991Z,15.50
2022-10-12T03:29:48.486Z,12.10
2022-10-12T03:32:16.179Z,14.27
2022-10-12T03:34:43.726Z,10.87
2022-10-12T03:37:11.296Z,15.40
2022-10-12T03:39:38.801Z,19.53
2022-10-12T03:42:06.252Z,14.80
2022-10-12T03:44:33.694Z,13.07
2022-10-12T03:47:01.107Z,15.70
2022-10-12T03:49:28.836Z,16.37
2022-10-12T03:51:56.331Z,18.47
2022-10-12T03:54:26.060Z,13.43
2022-10-12T03:56:53.752Z,16.13
2022-10-12T03:59:21.182Z,15.03
2022-10-12T04:01:49.000Z,12.87
2022-10-12T04:04:16.670Z,14.67
2022-10-12T04:06:46.353Z,13.77
2022-10-12T04:09:13.793Z,12.73
2022-10-12T04:11:41.241Z,21.10
2022-10-12T04:14:08.782Z,17.40
2022-10-12T04:16:36.200Z,16.30
2022-10-12T04:19:03.715Z,15.70
2022-10-12T04:21:31.990Z,13.53
2022-10-12T04:23:59.398Z,15.37
2022-10-12T04:26:26.972Z,11.83
2022-10-12T04:28:54.461Z,14.63
2022-10-12T04:31:21.994Z,19.40
2022-10-12T04:33:49.473Z,13.37
2022-10-12T04:36:16.965Z,16.57
2022-10-12T04:38:44.467Z,13.03
2022-10-12T04:41:12.017Z,15.10
2022-10-12T04:43:39.432Z,15.80
2022-10-12T04:46:07.083Z,14.00
2022-10-12T04:48:34.487Z,15.03
2022-10-12T04:51:02.034Z,12.23
2022-10-12T04:53:29.779Z,21.17
2022-10-12T04:55:57.824Z,14.20
2022-10-12T04:58:25.313Z,10.97
2022-10-12T05:00:52.884Z,15.87
2022-10-12T05:03:20.396Z,15.63
2022-10-12T05:05:47.895Z,16.85
2022-10-12T05:08:15.530Z,13.13
2022-10-12T05:10:43.143Z,14.60
2022-10-12T05:13:10.556Z,18.92
2022-10-12T05:15:38.051Z,12.07
2022-10-12T05:18:05.683Z,16.08
2022-10-12T05:20:33.252Z,12.88
2022-10-12T05:23:00.845Z,19.48
2022-10-12T05:25:29.758Z,18.42
2022-10-12T05:27:57.516Z,14.18
2022-10-12T05:30:24.925Z,18.40
2022-10-12T05:32:52.502Z,17.58
2022-10-12T05:35:23.180Z,14.25
2022-10-12T05:37:50.738Z,16.85
2022-10-12T05:40:18.351Z,12.90
2022-10-12T05:42:46.062Z,16.58
2022-10-12T05:45:13.594Z,14.70
2022-10-12T05:47:41.641Z,16.95
2022-10-12T05:50:09.734Z,18.15
2022-10-12T05:52:37.564Z,14.43
2022-10-12T05:55:05.702Z,15.02
2022-10-12T05:57:33.278Z,14.68
2022-10-12T06:00:00.777Z,12.88
2022-10-12T06:02:28.346Z,12.30
2022-10-12T06:04:55.772Z,10.75
2022-10-12T06:07:23.315Z,12.20
2022-10-12T06:09:51.189Z,11.05
2022-10-12T06:12:18.710Z,15.40
2022-10-12T06:14:46.364Z,18.30
2022-10-12T06:17:13.814Z,13.80
2022-10-12T06:19:41.199Z,15.07
2022-10-12T06:22:08.684Z,16.90
2022-10-12T06:24:36.200Z,12.00
2022-10-12T06:27:03.900Z,16.80
2022-10-12T06:29:31.448Z,13.93
2022-10-12T06:31:59.378Z,12.63
2022-10-12T06:34:26.798Z,14.45
2022-10-12T06:36:57.120Z,15.32
2022-10-12T06:39:28.379Z,17.77
2022-10-12T06:41:55.816Z,18.10
2022-10-12T06:44:23.600Z,16.83
2022-10-12T06:46:51.056Z,17.83
2022-10-12T06:49:18.508Z,25.55
2022-10-12T06:51:46.226Z,15.38
2022-10-12T06:54:13.735Z,18.60
2022-10-12T06:56:41.403Z,19.65
2022-10-12T06:59:11.037Z,14.80
2022-10-12T07:01:39.008Z,18.63
2022-10-12T07:04:06.712Z,17.23
2022-10-12T07:06:34.174Z,13.57
2022-10-12T07:09:04.046Z,19.80
2022-10-12T07:11:31.584Z,23.45
2022-10-12T07:13:59.037Z,17.35
2022-10-12T07:16:26.524Z,18.45
2022-10-12T07:18:54.075Z,15.80
2022-10-12T07:21:24.551Z,13.15
2022-10-12T07:23:52.968Z,12.05
2022-10-12T07:26:20.513Z,16.17
2022-10-12T07:28:48.709Z,17.40
2022-10-12T07:31:16.237Z,12.25
2022-10-12T07:33:43.691Z,13.15
2022-10-12T07:36:17.289Z,11.77
2022-10-12T07:41:17.801Z,10.55
2022-10-12T07:46:43.173Z,11.27
2022-10-12T07:53:19.213Z,8.98
2022-10-12T07:57:00.099Z,5.65
2022-10-12T08:00:16.354Z,9.60
2022-10-12T08:02:44.015Z,11.07
2022-10-12T08:05:38.162Z,9.32
2022-10-12T08:09:19.676Z,8.32
2022-10-12T08:12:02.499Z,13.27
2022-10-12T08:14:42.092Z,9.73
2022-10-12T08:17:10.073Z,13.02
2022-10-12T08:20:04.644Z,9.50
2022-10-12T08:22:50.712Z,14.80
2022-10-12T08:25:24.296Z,6.72
2022-10-12T08:28:10.157Z,11.32
2022-10-12T08:30:39.285Z,8.65
2022-10-12T08:33:10.274Z,11.48
2022-10-12T08:35:39.253Z,10.75
2022-10-12T08:38:07.910Z,10.40
2022-10-12T08:40:45.868Z,10.48
2022-10-12T08:43:22.206Z,10.15
2022-10-12T08:46:00.886Z,8.50
2022-10-12T08:48:31.111Z,5.38
2022-10-12T08:51:03.297Z,6.18
2022-10-12T08:53:50.864Z,8.88
2022-10-12T08:58:48.102Z,8.80
2022-10-12T09:01:30.698Z,5.40
2022-10-12T09:04:29.690Z,4.68
2022-10-12T09:07:12.445Z,7.45
2022-10-12T09:10:17.848Z,8.52
2022-10-12T09:12:55.759Z,7.85
2022-10-12T09:15:29.204Z,9.52
2022-10-12T09:17:59.726Z,7.65
2022-10-12T09:20:30.793Z,9.68
2022-10-12T09:23:22.366Z,4.57
2022-10-12T09:25:50.715Z,7.78
2022-10-12T09:28:42.128Z,9.23
2022-10-12T09:31:09.661Z,7.03
2022-10-12T09:33:58.839Z,6.68
2022-10-12T09:36:33.839Z,9.88
2022-10-12T09:39:05.292Z,8.13
2022-10-12T09:41:40.951Z,4.63
2022-10-12T09:44:16.937Z,8.82
2022-10-12T09:46:55.390Z,7.63
2022-10-12T09:49:51.815Z,6.05
2022-10-12T09:52:27.855Z,7.63
2022-10-12T09:55:05.913Z,5.45
2022-10-12T09:57:39.932Z,7.53
2022-10-12T10:00:25.214Z,9.07
2022-10-12T10:02:53.661Z,7.32
2022-10-12T10:05:24.453Z,8.15
2022-10-12T10:07:52.210Z,6.07
2022-10-12T10:10:29.271Z,10.05
2022-10-12T10:13:03.061Z,5.68
2022-10-12T10:15:41.410Z,5.05
2022-10-12T10:26:26.599Z,6.15
2022-10-12T10:28:58.808Z,3.60
2022-10-12T10:31:29.367Z,6.38
2022-10-12T10:42:34.904Z,6.60
2022-10-12T10:45:07.340Z,6.07
2022-10-12T10:47:47.080Z,7.75
2022-10-12T10:50:27.452Z,8.15
2022-10-12T10:52:59.452Z,6.55
2022-10-12T10:55:44.611Z,11.65
2022-10-12T10:58:51.269Z,6.30
2022-10-12T11:01:45.423Z,7.28
2022-10-12T11:04:23.070Z,5.88
2022-10-12T11:06:54.009Z,7.28
2022-10-12T11:09:31.701Z,5.97
2022-10-12T11:12:08.850Z,11.70
2022-10-12T11:14:48.991Z,6.28
2022-10-12T11:17:27.098Z,7.78
2022-10-12T11:20:37.637Z,7.07
2022-10-12T11:23:42.348Z,5.10
2022-10-12T11:26:38.539Z,6.38
2022-10-12T11:29:06.652Z,7.95
2022-10-12T11:31:38.232Z,10.45
2022-10-12T11:34:13.297Z,7.78
2022-10-12T11:36:55.803Z,8.82
2022-10-12T11:39:37.002Z,6.78
2022-10-12T11:42:27.099Z,6.28
2022-10-12T11:44:55.152Z,6.68
2022-10-12T11:47:22.545Z,7.90
2022-10-12T11:49:57.925Z,7.15
2022-10-12T11:52:36.290Z,7.88
2022-10-12T11:55:42.918Z,5.78
2022-10-12T11:58:24.406Z,7.05
2022-10-12T12:01:07.695Z,7.05
2022-10-12T12:04:41.087Z,9.20
2022-10-12T12:07:38.224Z,8.23
2022-10-12T12:10:26.731Z,7.20
2022-10-12T12:13:18.000Z,7.95
2022-10-12T12:15:49.738Z,10.82
2022-10-12T12:18:28.050Z,8.63
2022-10-12T12:21:10.398Z,8.50
2022-10-12T12:23:49.913Z,8.00
2022-10-12T12:26:19.293Z,7.53
2022-10-12T12:29:09.874Z,5.55
2022-10-12T12:31:38.107Z,8.63
2022-10-12T12:34:17.371Z,8.48
2022-10-12T12:36:51.655Z,8.80
2022-10-12T12:39:32.806Z,6.95
2022-10-12T12:42:09.376Z,13.05
2022-10-12T12:44:42.983Z,12.88
2022-10-12T12:50:02.017Z,5.70
2022-10-12T12:52:35.020Z,9.13
2022-10-12T12:55:14.535Z,5.63
2022-10-12T12:58:00.682Z,11.05
2022-10-12T13:01:06.589Z,5.97
2022-10-12T13:03:48.724Z,8.73
2022-10-12T13:06:30.218Z,5.45
2022-10-12T13:09:20.959Z,5.93
2022-10-12T13:11:57.025Z,6.68
2022-10-12T13:14:47.126Z,4.93
2022-10-12T13:17:32.207Z,3.92
2022-10-12T13:20:06.517Z,4.45
2022-10-12T13:22:35.555Z,6.47
2022-10-12T13:25:07.161Z,5.90
2022-10-12T13:27:46.677Z,7.18
2022-10-12T13:30:32.756Z,4.20
2022-10-12T13:33:10.066Z,5.50
2022-10-12T13:38:26.422Z,6.18
2022-10-12T13:41:08.569Z,6.78
2022-10-12T13:43:43.925Z,5.15
2022-10-12T13:46:35.810Z,4.78
2022-10-12T13:49:04.359Z,4.13
2022-10-12T13:51:32.046Z,7.47
2022-10-12T13:53:59.555Z,6.63
2022-10-12T13:56:29.085Z,4.43
2022-10-12T13:59:05.586Z,7.60
2022-10-12T14:01:51.731Z,6.68
2022-10-12T14:04:19.528Z,6.18
2022-10-12T14:06:53.018Z,7.63
2022-10-12T14:09:24.158Z,5.35
2022-10-12T14:11:53.520Z,6.55
2022-10-12T14:14:30.110Z,8.73
2022-10-12T14:16:57.767Z,8.70
2022-10-12T14:19:40.258Z,7.65
2022-10-12T14:22:08.351Z,15.00
2022-10-12T14:24:37.119Z,6.75
2022-10-12T14:27:06.650Z,15.73
2022-10-12T14:29:45.465Z,5.10
2022-10-12T14:32:26.528Z,6.95
2022-10-12T14:35:27.601Z,6.28
2022-10-12T14:38:41.199Z,7.82
2022-10-12T14:41:36.410Z,7.18
2022-10-12T14:44:10.879Z,9.13
2022-10-12T14:46:41.883Z,8.05
2022-10-12T14:49:18.591Z,12.70
2022-10-12T14:51:47.870Z,6.07
2022-10-12T14:54:15.613Z,7.38
2022-10-12T14:56:43.082Z,12.25
2022-10-12T15:07:16.224Z,7.43
2022-10-12T15:09:44.615Z,7.18
2022-10-12T15:12:14.493Z,7.47
2022-10-12T15:14:43.051Z,10.20
2022-10-12T15:17:39.702Z,10.73
2022-10-12T15:20:10.964Z,9.93
2022-10-12T15:22:39.126Z,6.28
2022-10-12T15:25:18.999Z,6.82
2022-10-12T15:27:46.568Z,9.15
2022-10-12T15:30:14.928Z,10.25
2022-10-12T15:32:42.813Z,9.52
2022-10-12T15:35:18.934Z,12.98
2022-10-12T15:37:47.173Z,7.43
2022-10-12T15:40:16.384Z,8.55
2022-10-12T15:42:44.209Z,9.68
2022-10-12T15:45:27.054Z,12.82
2022-10-12T15:47:55.123Z,9.32
2022-10-12T15:50:29.075Z,11.75
2022-10-12T15:52:57.133Z,13.13
2022-10-12T15:55:27.704Z,15.25
2022-10-12T15:57:56.394Z,9.85
2022-10-12T16:00:27.338Z,10.65
2022-10-12T16:02:56.683Z,10.25
2022-10-12T16:05:33.156Z,12.70
2022-10-12T16:08:01.842Z,13.32
2022-10-12T16:10:33.099Z,13.82
2022-10-12T16:13:01.240Z,12.00
2022-10-12T16:15:33.047Z,10.63
2022-10-12T16:18:02.331Z,16.80
2022-10-12T16:20:31.481Z,17.00
2022-10-12T16:23:00.828Z,11.00
2022-10-12T16:25:28.484Z,9.48
2022-10-12T16:27:57.528Z,9.65
2022-10-12T16:30:26.184Z,10.85
2022-10-12T16:32:54.430Z,14.10
2022-10-12T16:35:21.960Z,13.23
2022-10-12T16:37:49.786Z,8.63
2022-10-12T16:40:17.451Z,10.68
2022-10-12T16:42:44.961Z,16.60
2022-10-12T16:45:13.211Z,10.63
2022-10-12T16:47:42.689Z,14.38
2022-10-12T16:50:10.711Z,11.10
2022-10-12T16:52:38.461Z,14.98
2022-10-12T16:55:06.704Z,13.88
2022-10-12T16:57:34.233Z,9.95
2022-10-12T17:00:02.003Z,9.87
2022-10-12T17:02:31.588Z,9.93
2022-10-12T17:04:59.071Z,9.50
2022-10-12T17:07:26.991Z,11.80
2022-10-12T17:09:57.579Z,13.80
2022-10-12T17:12:26.350Z,10.63
2022-10-12T17:14:54.224Z,12.70
2022-10-12T17:17:21.918Z,8.23
2022-10-12T17:19:49.471Z,9.80
2022-10-12T17:22:17.533Z,15.27
2022-10-12T17:24:45.174Z,13.00
2022-10-12T17:27:14.655Z,13.73
2022-10-12T17:29:42.911Z,8.30
2022-10-12T17:32:11.057Z,12.98
2022-10-12T17:34:43.303Z,9.25
2022-10-12T17:37:13.958Z,12.63
2022-10-12T17:39:44.163Z,9.50
2022-10-12T17:42:14.349Z,8.38
2022-10-12T17:44:42.149Z,9.43
2022-10-12T17:47:09.744Z,11.67
2022-10-12T17:49:37.386Z,10.55
2022-10-12T17:52:05.120Z,7.68
2022-10-12T17:54:33.046Z,14.10
2022-10-12T17:57:00.572Z,12.27
2022-10-12T17:59:28.250Z,8.60
2022-10-12T18:01:55.819Z,11.48
2022-10-12T18:04:23.352Z,9.05
2022-10-12T18:06:51.165Z,12.30
2022-10-12T18:09:20.902Z,8.32
2022-10-12T18:11:48.923Z,8.27
2022-10-12T18:14:16.490Z,11.88
2022-10-12T18:16:44.036Z,9.73
2022-10-12T18:19:11.818Z,12.85
2022-10-12T18:21:40.149Z,7.28
2022-10-12T18:24:16.475Z,9.88
2022-10-12T18:26:46.103Z,10.38
2022-10-12T18:29:16.457Z,10.88
2022-10-12T18:31:44.045Z,9.73
2022-10-12T18:34:11.743Z,8.63
2022-10-12T18:36:40.888Z,6.88
2022-10-12T18:39:08.839Z,9.73
2022-10-12T18:41:36.540Z,9.65
2022-10-12T18:44:05.696Z,7.35
2022-10-12T18:46:35.389Z,9.55
2022-10-12T18:49:05.470Z,10.35
2022-10-12T18:51:35.253Z,10.05
2022-10-12T18:54:03.790Z,8.50
2022-10-12T18:56:32.895Z,16.98
2022-10-12T18:59:01.022Z,12.75
2022-10-12T19:01:30.260Z,18.90
2022-10-12T19:03:59.956Z,10.10
2022-10-12T19:06:34.204Z,10.07
2022-10-12T19:09:02.542Z,8.35
2022-10-12T19:11:49.428Z,9.85
2022-10-12T19:23:43.479Z,12.48
2022-10-12T19:42:38.534Z,9.38
2022-10-12T19:45:41.143Z,14.30
2022-10-12T19:48:09.519Z,9.40
2022-10-12T19:50:37.075Z,8.18
2022-10-12T19:53:05.075Z,9.15
2022-10-12T19:55:34.124Z,8.45
2022-10-12T19:58:16.962Z,7.82
2022-10-12T20:00:44.512Z,10.05
2022-10-12T20:03:12.355Z,10.35
2022-10-12T20:09:07.591Z,6.40
2022-10-12T20:11:35.626Z,12.48
2022-10-12T20:14:03.404Z,9.10
2022-10-12T20:16:34.822Z,6.30
2022-10-12T20:19:04.324Z,9.07
2022-10-12T20:21:31.835Z,6.80
2022-10-12T20:23:59.414Z,9.35
2022-10-12T20:26:27.412Z,6.30
2022-10-12T20:28:55.030Z,7.32
2022-10-12T20:31:27.561Z,11.48
2022-10-12T20:33:56.196Z,8.27
2022-10-12T20:36:26.429Z,7.22
2022-10-12T20:38:54.160Z,12.10
2022-10-12T20:41:22.019Z,6.82
2022-10-12T20:43:49.729Z,8.70
2022-10-12T20:46:18.198Z,8.32
2022-10-12T20:48:46.332Z,8.48
2022-10-12T20:51:27.707Z,5.68
2022-10-12T20:53:58.968Z,8.85
2022-10-12T20:56:28.402Z,9.20
2022-10-12T20:58:56.147Z,8.75
2022-10-12T21:01:25.974Z,7.32
2022-10-12T21:03:54.210Z,10.38
2022-10-12T21:06:23.552Z,9.18
2022-10-12T21:08:56.290Z,7.97
2022-10-12T21:11:24.766Z,15.32
2022-10-12T21:13:52.408Z,9.93
2022-10-12T21:16:22.171Z,8.68
2022-10-12T21:18:53.640Z,8.85
2022-10-12T21:21:21.315Z,9.82
2022-10-12T21:23:54.912Z,9.18
2022-10-12T21:26:27.333Z,9.23
2022-10-12T21:28:55.456Z,9.32
2022-10-12T21:31:28.204Z,9.00
2022-10-12T21:34:03.612Z,9.18
2022-10-12T21:36:32.816Z,7.45
2022-10-12T21:39:00.301Z,8.13
2022-10-12T21:41:29.213Z,7.05
2022-10-12T21:43:57.755Z,9.13
2022-10-12T21:46:30.553Z,7.28
2022-10-12T21:49:00.168Z,7.40
2022-10-12T21:51:31.691Z,8.88
2022-10-12T21:53:59.227Z,8.50
2022-10-12T21:56:29.209Z,7.30
2022-10-12T21:58:59.032Z,7.53
2022-10-12T22:01:34.619Z,9.32
2022-10-12T22:04:05.539Z,10.50
2022-10-12T22:06:34.550Z,10.20
2022-10-12T22:09:08.651Z,11.38
2022-10-12T22:11:37.361Z,7.15
2022-10-12T22:14:12.801Z,7.70
2022-10-12T22:16:40.573Z,8.10
2022-10-12T22:19:08.810Z,8.60
2022-10-12T22:21:36.700Z,9.00
2022-10-12T22:24:04.318Z,8.77
2022-10-12T22:26:32.307Z,7.65
2022-10-12T22:29:03.843Z,7.60
2022-10-12T22:31:31.482Z,13.85
2022-10-12T22:33:59.138Z,7.97
2022-10-12T22:36:28.939Z,10.00
2022-10-12T22:38:56.504Z,7.93
2022-10-12T22:41:24.601Z,7.85
2022-10-12T22:43:55.464Z,7.03
2022-10-12T22:46:25.111Z,10.43
2022-10-12T22:48:53.717Z,7.90
2022-10-12T22:51:33.157Z,7.60
2022-10-12T22:54:01.350Z,6.85
2022-10-12T22:56:29.942Z,8.73
2022-10-12T22:59:02.938Z,6.65
2022-10-12T23:01:30.652Z,7.07
2022-10-12T23:03:58.102Z,7.32
2022-10-12T23:06:26.117Z,9.43
2022-10-12T23:08:54.038Z,10.30
2022-10-12T23:11:25.042Z,6.10
2022-10-12T23:13:53.458Z,8.77
2022-10-12T23:16:23.803Z,6.80
2022-10-12T23:19:04.840Z,7.93
2022-10-12T23:21:33.943Z,6.85
2022-10-12T23:24:05.082Z,8.57
2022-10-12T23:26:33.628Z,8.38
2022-10-12T23:29:01.033Z,7.45
2022-10-12T23:31:30.697Z,8.30
2022-10-12T23:34:00.545Z,9.60
2022-10-12T23:36:28.455Z,7.68
2022-10-12T23:38:56.605Z,10.13
2022-10-12T23:41:24.699Z,7.88
2022-10-12T23:43:52.155Z,5.03
2022-10-12T23:46:19.680Z,7.50
2022-10-12T23:48:47.118Z,5.43
2022-10-12T23:51:14.603Z,5.75
2022-10-12T23:53:42.632Z,5.65
2022-10-12T23:56:10.475Z,5.35
2022-10-12T23:58:38.571Z,4.47
